sensor_id;sensor_type;location;lat;lon;timestamp;P1;durP1;ratioP1;P2;durP2;ratioP2
1140;SDS011;559;48.628;8.924;2023-04-23T00:00:57;183.98;;;177.00;;
1140;SDS011;559;48.628;8.924;2023-04-23T00:03:26;186.80;;;179.60;;
1140;SDS011;559;48.628;8.924;2023-04-23T00:05:57;180.15;;;173.25;;
1140;SDS011;559;48.628;8.924;2023-04-23T00:08:27;178.10;;;171.20;;
1140;SDS011;559;48.628;8.924;2023-04-23T00:10:59;182.25;;;175.25;;
1140;SDS011;559;48.628;8.924;2023-04-23T00:13:26;183.77;;;176.73;;
1140;SDS011;559;48.628;8.924;2023-04-23T00:15:59;184.60;;;177.20;;
1140;SDS011;559;48.628;8.924;2023-04-23T00:18:30;181.23;;;174.10;;
1140;SDS011;559;48.628;8.924;2023-04-23T00:20:57;177.82;;;170.93;;
1140;SDS011;559;48.628;8.924;2023-04-23T00:23:23;175.85;;;168.95;;
1140;SDS011;559;48.628;8.924;2023-04-23T00:25:52;179.60;;;172.70;;
1140;SDS011;559;48.628;8.924;2023-04-23T00:28:24;181.18;;;174.07;;
1140;SDS011;559;48.628;8.924;2023-04-23T00:30:56;178.18;;;171.23;;
1140;SDS011;559;48.628;8.924;2023-04-23T00:33:29;179.35;;;172.40;;
1140;SDS011;559;48.628;8.924;2023-04-23T00:36:00;180.52;;;173.43;;
1140;SDS011;559;48.628;8.924;2023-04-23T00:38:29;179.32;;;172.13;;
1140;SDS011;559;48.628;8.924;2023-04-23T00:40:57;181.18;;;173.73;;
1140;SDS011;559;48.628;8.924;2023-04-23T00:43:28;179.35;;;172.35;;
1140;SDS011;559;48.628;8.924;2023-04-23T00:46:02;178.70;;;171.50;;
1140;SDS011;559;48.628;8.924;2023-04-23T00:48:32;178.88;;;171.70;;
1140;SDS011;559;48.628;8.924;2023-04-23T00:50:59;173.10;;;165.93;;
1140;SDS011;559;48.628;8.924;2023-04-23T00:53:28;172.52;;;165.32;;
1140;SDS011;559;48.628;8.924;2023-04-23T00:56:02;170.77;;;163.75;;
1140;SDS011;559;48.628;8.924;2023-04-23T00:58:35;170.10;;;162.90;;
1140;SDS011;559;48.628;8.924;2023-04-23T01:01:04;170.30;;;163.20;;
1140;SDS011;559;48.628;8.924;2023-04-23T01:03:31;174.63;;;167.20;;
1140;SDS011;559;48.628;8.924;2023-04-23T01:06:02;170.05;;;162.85;;
1140;SDS011;559;48.628;8.924;2023-04-23T01:08:29;167.80;;;160.45;;
1140;SDS011;559;48.628;8.924;2023-04-23T01:11:02;168.93;;;161.75;;
1140;SDS011;559;48.628;8.924;2023-04-23T01:13:29;168.60;;;161.35;;
1140;SDS011;559;48.628;8.924;2023-04-23T01:16:01;165.90;;;158.60;;
1140;SDS011;559;48.628;8.924;2023-04-23T01:18:32;164.20;;;157.02;;
1140;SDS011;559;48.628;8.924;2023-04-23T01:21:02;164.48;;;157.13;;
1140;SDS011;559;48.628;8.924;2023-04-23T01:23:32;163.90;;;156.75;;
1140;SDS011;559;48.628;8.924;2023-04-23T01:26:01;163.15;;;155.88;;
1140;SDS011;559;48.628;8.924;2023-04-23T01:28:31;163.55;;;156.23;;
1140;SDS011;559;48.628;8.924;2023-04-23T01:31:03;159.35;;;152.23;;
1140;SDS011;559;48.628;8.924;2023-04-23T01:33:30;163.15;;;155.90;;
1140;SDS011;559;48.628;8.924;2023-04-23T01:35:59;161.43;;;154.32;;
1140;SDS011;559;48.628;8.924;2023-04-23T01:38:30;163.60;;;156.18;;
1140;SDS011;559;48.628;8.924;2023-04-23T01:41:09;164.35;;;157.15;;
1140;SDS011;559;48.628;8.924;2023-04-23T01:43:38;162.27;;;155.13;;
1140;SDS011;559;48.628;8.924;2023-04-23T01:46:09;162.23;;;155.07;;
1140;SDS011;559;48.628;8.924;2023-04-23T01:48:36;163.18;;;155.77;;
1140;SDS011;559;48.628;8.924;2023-04-23T01:51:07;161.57;;;154.38;;
1140;SDS011;559;48.628;8.924;2023-04-23T01:53:46;162.02;;;154.73;;
1140;SDS011;559;48.628;8.924;2023-04-23T01:56:15;165.52;;;158.02;;
1140;SDS011;559;48.628;8.924;2023-04-23T01:58:41;161.80;;;154.55;;
1140;SDS011;559;48.628;8.924;2023-04-23T02:01:08;165.70;;;158.30;;
1140;SDS011;559;48.628;8.924;2023-04-23T02:03:36;160.70;;;153.40;;
1140;SDS011;559;48.628;8.924;2023-04-23T02:06:03;159.02;;;151.48;;
1140;SDS011;559;48.628;8.924;2023-04-23T02:08:30;159.98;;;152.75;;
1140;SDS011;559;48.628;8.924;2023-04-23T02:11:04;158.27;;;151.00;;
1140;SDS011;559;48.628;8.924;2023-04-23T02:13:33;155.05;;;148.00;;
1140;SDS011;559;48.628;8.924;2023-04-23T02:16:00;158.90;;;151.73;;
1140;SDS011;559;48.628;8.924;2023-04-23T02:18:39;160.98;;;153.77;;
1140;SDS011;559;48.628;8.924;2023-04-23T02:21:09;159.73;;;152.30;;
1140;SDS011;559;48.628;8.924;2023-04-23T02:23:38;160.57;;;153.40;;
1140;SDS011;559;48.628;8.924;2023-04-23T02:26:06;159.15;;;152.05;;
1140;SDS011;559;48.628;8.924;2023-04-23T02:28:35;157.80;;;150.60;;
1140;SDS011;559;48.628;8.924;2023-04-23T02:31:03;159.10;;;151.85;;
1140;SDS011;559;48.628;8.924;2023-04-23T02:33:30;159.73;;;152.65;;
1140;SDS011;559;48.628;8.924;2023-04-23T02:36:00;160.52;;;152.85;;
1140;SDS011;559;48.628;8.924;2023-04-23T02:38:27;164.18;;;156.77;;
1140;SDS011;559;48.628;8.924;2023-04-23T02:40:53;164.00;;;156.50;;
1140;SDS011;559;48.628;8.924;2023-04-23T02:43:21;161.70;;;154.30;;
1140;SDS011;559;48.628;8.924;2023-04-23T02:45:51;165.77;;;158.23;;
1140;SDS011;559;48.628;8.924;2023-04-23T02:48:17;162.27;;;154.77;;
1140;SDS011;559;48.628;8.924;2023-04-23T02:50:46;164.73;;;157.13;;
1140;SDS011;559;48.628;8.924;2023-04-23T02:53:15;165.95;;;158.18;;
1140;SDS011;559;48.628;8.924;2023-04-23T02:55:45;167.93;;;160.13;;
1140;SDS011;559;48.628;8.924;2023-04-23T02:58:13;165.30;;;157.55;;
1140;SDS011;559;48.628;8.924;2023-04-23T03:00:43;165.60;;;157.85;;
1140;SDS011;559;48.628;8.924;2023-04-23T03:03:13;176.27;;;167.95;;
1140;SDS011;559;48.628;8.924;2023-04-23T03:05:45;174.80;;;166.40;;
1140;SDS011;559;48.628;8.924;2023-04-23T03:08:12;182.27;;;173.65;;
1140;SDS011;559;48.628;8.924;2023-04-23T03:10:39;181.20;;;172.60;;
1140;SDS011;559;48.628;8.924;2023-04-23T03:13:05;177.70;;;169.10;;
1140;SDS011;559;48.628;8.924;2023-04-23T03:15:32;178.82;;;170.25;;
1140;SDS011;559;48.628;8.924;2023-04-23T03:18:03;180.32;;;171.60;;
1140;SDS011;559;48.628;8.924;2023-04-23T03:20:36;180.05;;;171.48;;
1140;SDS011;559;48.628;8.924;2023-04-23T03:23:05;185.07;;;176.18;;
1140;SDS011;559;48.628;8.924;2023-04-23T03:25:31;184.15;;;175.07;;
1140;SDS011;559;48.628;8.924;2023-04-23T03:28:00;177.30;;;168.70;;
1140;SDS011;559;48.628;8.924;2023-04-23T03:30:29;180.98;;;172.48;;
1140;SDS011;559;48.628;8.924;2023-04-23T03:32:56;183.90;;;175.07;;
1140;SDS011;559;48.628;8.924;2023-04-23T03:35:32;181.48;;;172.85;;
1140;SDS011;559;48.628;8.924;2023-04-23T03:38:04;179.95;;;171.05;;
1140;SDS011;559;48.628;8.924;2023-04-23T03:40:37;172.50;;;164.00;;
1140;SDS011;559;48.628;8.924;2023-04-23T03:43:06;172.35;;;163.85;;
1140;SDS011;559;48.628;8.924;2023-04-23T03:45:38;175.00;;;166.38;;
1140;SDS011;559;48.628;8.924;2023-04-23T03:48:04;171.50;;;162.80;;
1140;SDS011;559;48.628;8.924;2023-04-23T03:50:35;178.45;;;169.80;;
1140;SDS011;559;48.628;8.924;2023-04-23T03:53:13;179.60;;;170.77;;
1140;SDS011;559;48.628;8.924;2023-04-23T03:55:45;175.95;;;167.45;;
1140;SDS011;559;48.628;8.924;2023-04-23T03:58:12;172.13;;;163.82;;
1140;SDS011;559;48.628;8.924;2023-04-23T04:00:40;185.45;;;177.05;;
1140;SDS011;559;48.628;8.924;2023-04-23T04:03:07;183.05;;;174.75;;
1140;SDS011;559;48.628;8.924;2023-04-23T04:05:35;182.77;;;174.43;;
1140;SDS011;559;48.628;8.924;2023-04-23T04:08:03;181.77;;;173.38;;
1140;SDS011;559;48.628;8.924;2023-04-23T04:10:30;183.50;;;175.13;;
1140;SDS011;559;48.628;8.924;2023-04-23T04:12:56;173.68;;;165.57;;
1140;SDS011;559;48.628;8.924;2023-04-23T04:15:23;180.35;;;172.05;;
1140;SDS011;559;48.628;8.924;2023-04-23T04:17:49;181.15;;;172.85;;
1140;SDS011;559;48.628;8.924;2023-04-23T04:20:16;172.50;;;164.38;;
1140;SDS011;559;48.628;8.924;2023-04-23T04:22:44;175.02;;;167.00;;
1140;SDS011;559;48.628;8.924;2023-04-23T04:25:11;180.77;;;172.57;;
1140;SDS011;559;48.628;8.924;2023-04-23T04:27:40;180.85;;;172.65;;
1140;SDS011;559;48.628;8.924;2023-04-23T04:30:08;183.95;;;175.75;;
1140;SDS011;559;48.628;8.924;2023-04-23T04:32:38;183.10;;;174.90;;
1140;SDS011;559;48.628;8.924;2023-04-23T04:35:09;186.40;;;177.80;;
1140;SDS011;559;48.628;8.924;2023-04-23T04:37:37;179.23;;;171.02;;
1140;SDS011;559;48.628;8.924;2023-04-23T04:40:06;179.32;;;171.23;;
1140;SDS011;559;48.628;8.924;2023-04-23T04:42:35;174.45;;;166.35;;
1140;SDS011;559;48.628;8.924;2023-04-23T04:45:03;180.23;;;172.00;;
1140;SDS011;559;48.628;8.924;2023-04-23T04:47:32;178.25;;;170.07;;
1140;SDS011;559;48.628;8.924;2023-04-23T04:50:06;174.70;;;166.68;;
1140;SDS011;559;48.628;8.924;2023-04-23T04:52:34;178.52;;;170.43;;
1140;SDS011;559;48.628;8.924;2023-04-23T04:55:09;170.80;;;162.93;;
1140;SDS011;559;48.628;8.924;2023-04-23T04:57:37;171.48;;;163.55;;
1140;SDS011;559;48.628;8.924;2023-04-23T05:00:19;173.50;;;165.45;;
1140;SDS011;559;48.628;8.924;2023-04-23T05:02:47;179.63;;;171.43;;
1140;SDS011;559;48.628;8.924;2023-04-23T05:05:21;170.15;;;162.35;;
1140;SDS011;559;48.628;8.924;2023-04-23T05:07:50;162.00;;;154.50;;
1140;SDS011;559;48.628;8.924;2023-04-23T05:10:28;167.80;;;160.13;;
1140;SDS011;559;48.628;8.924;2023-04-23T05:12:55;161.50;;;153.98;;
1140;SDS011;559;48.628;8.924;2023-04-23T05:15:24;161.50;;;154.13;;
1140;SDS011;559;48.628;8.924;2023-04-23T05:17:52;157.43;;;150.23;;
1140;SDS011;559;48.628;8.924;2023-04-23T05:20:19;155.98;;;148.77;;
1140;SDS011;559;48.628;8.924;2023-04-23T05:22:46;155.55;;;148.35;;
1140;SDS011;559;48.628;8.924;2023-04-23T05:25:12;164.73;;;157.27;;
1140;SDS011;559;48.628;8.924;2023-04-23T05:27:43;155.55;;;148.38;;
1140;SDS011;559;48.628;8.924;2023-04-23T05:30:12;161.27;;;153.90;;
1140;SDS011;559;48.628;8.924;2023-04-23T05:32:39;157.90;;;150.70;;
1140;SDS011;559;48.628;8.924;2023-04-23T05:35:09;156.23;;;149.10;;
1140;SDS011;559;48.628;8.924;2023-04-23T05:37:35;158.00;;;150.70;;
1140;SDS011;559;48.628;8.924;2023-04-23T05:40:02;151.93;;;144.77;;
1140;SDS011;559;48.628;8.924;2023-04-23T05:42:31;150.93;;;143.93;;
1140;SDS011;559;48.628;8.924;2023-04-23T05:44:58;152.55;;;145.48;;
1140;SDS011;559;48.628;8.924;2023-04-23T05:47:25;154.80;;;147.60;;
1140;SDS011;559;48.628;8.924;2023-04-23T05:49:51;149.45;;;142.45;;
1140;SDS011;559;48.628;8.924;2023-04-23T05:52:18;141.73;;;135.13;;
1140;SDS011;559;48.628;8.924;2023-04-23T05:54:47;138.50;;;132.00;;
1140;SDS011;559;48.628;8.924;2023-04-23T05:57:16;139.80;;;133.40;;
1140;SDS011;559;48.628;8.924;2023-04-23T05:59:43;137.98;;;131.57;;
1140;SDS011;559;48.628;8.924;2023-04-23T06:02:11;133.13;;;127.13;;
1140;SDS011;559;48.628;8.924;2023-04-23T06:04:41;131.75;;;125.88;;
1140;SDS011;559;48.628;8.924;2023-04-23T06:07:09;135.10;;;129.20;;
1140;SDS011;559;48.628;8.924;2023-04-23T06:09:36;133.40;;;127.60;;
1140;SDS011;559;48.628;8.924;2023-04-23T06:12:04;136.65;;;130.73;;
1140;SDS011;559;48.628;8.924;2023-04-23T06:14:35;134.85;;;128.95;;
1140;SDS011;559;48.628;8.924;2023-04-23T06:17:02;133.00;;;127.15;;
1140;SDS011;559;48.628;8.924;2023-04-23T06:19:30;129.05;;;123.30;;
1140;SDS011;559;48.628;8.924;2023-04-23T06:21:56;131.30;;;125.55;;
1140;SDS011;559;48.628;8.924;2023-04-23T06:24:23;123.88;;;118.30;;
1140;SDS011;559;48.628;8.924;2023-04-23T06:26:49;134.18;;;128.40;;
1140;SDS011;559;48.628;8.924;2023-04-23T06:29:16;127.63;;;122.10;;
1140;SDS011;559;48.628;8.924;2023-04-23T06:31:42;131.20;;;125.45;;
1140;SDS011;559;48.628;8.924;2023-04-23T06:34:09;129.10;;;123.30;;
1140;SDS011;559;48.628;8.924;2023-04-23T06:36:37;124.25;;;118.65;;
1140;SDS011;559;48.628;8.924;2023-04-23T06:39:03;122.32;;;116.78;;
1140;SDS011;559;48.628;8.924;2023-04-23T06:41:30;121.60;;;116.28;;
1140;SDS011;559;48.628;8.924;2023-04-23T06:43:56;125.22;;;119.70;;
1140;SDS011;559;48.628;8.924;2023-04-23T06:46:23;115.82;;;110.63;;
1140;SDS011;559;48.628;8.924;2023-04-23T06:48:49;121.82;;;116.50;;
1140;SDS011;559;48.628;8.924;2023-04-23T06:51:16;120.93;;;115.70;;
1140;SDS011;559;48.628;8.924;2023-04-23T06:53:45;118.60;;;113.30;;
1140;SDS011;559;48.628;8.924;2023-04-23T06:56:11;118.03;;;112.82;;
1140;SDS011;559;48.628;8.924;2023-04-23T06:58:38;118.75;;;113.75;;
1140;SDS011;559;48.628;8.924;2023-04-23T07:01:05;117.57;;;112.47;;
1140;SDS011;559;48.628;8.924;2023-04-23T07:03:31;115.90;;;110.70;;
1140;SDS011;559;48.628;8.924;2023-04-23T07:05:58;111.33;;;106.43;;
1140;SDS011;559;48.628;8.924;2023-04-23T07:08:25;102.30;;;97.90;;
1140;SDS011;559;48.628;8.924;2023-04-23T07:10:53;106.60;;;102.20;;
1140;SDS011;559;48.628;8.924;2023-04-23T07:13:19;104.83;;;100.63;;
1140;SDS011;559;48.628;8.924;2023-04-23T07:15:46;107.07;;;102.87;;
1140;SDS011;559;48.628;8.924;2023-04-23T07:18:13;107.53;;;103.23;;
1140;SDS011;559;48.628;8.924;2023-04-23T07:20:39;104.30;;;100.10;;
1140;SDS011;559;48.628;8.924;2023-04-23T07:23:06;100.17;;;95.90;;
1140;SDS011;559;48.628;8.924;2023-04-23T07:25:32;103.33;;;99.03;;
1140;SDS011;559;48.628;8.924;2023-04-23T07:28:00;106.78;;;102.28;;
1140;SDS011;559;48.628;8.924;2023-04-23T07:30:27;104.60;;;100.50;;
1140;SDS011;559;48.628;8.924;2023-04-23T07:32:53;99.40;;;95.20;;
1140;SDS011;559;48.628;8.924;2023-04-23T07:35:20;97.78;;;93.68;;
1140;SDS011;559;48.628;8.924;2023-04-23T07:37:47;95.03;;;91.13;;
1140;SDS011;559;48.628;8.924;2023-04-23T07:40:18;88.63;;;85.10;;
1140;SDS011;559;48.628;8.924;2023-04-23T07:42:45;83.30;;;80.20;;
1140;SDS011;559;48.628;8.924;2023-04-23T07:45:13;82.83;;;79.70;;
1140;SDS011;559;48.628;8.924;2023-04-23T07:47:40;82.93;;;79.83;;
1140;SDS011;559;48.628;8.924;2023-04-23T07:50:07;80.40;;;77.30;;
1140;SDS011;559;48.628;8.924;2023-04-23T07:52:34;73.77;;;71.07;;
1140;SDS011;559;48.628;8.924;2023-04-23T07:55:01;76.87;;;73.77;;
1140;SDS011;559;48.628;8.924;2023-04-23T07:57:27;75.17;;;72.40;;
1140;SDS011;559;48.628;8.924;2023-04-23T07:59:54;75.63;;;72.87;;
1140;SDS011;559;48.628;8.924;2023-04-23T08:02:21;71.37;;;68.80;;
1140;SDS011;559;48.628;8.924;2023-04-23T08:04:50;74.20;;;71.50;;
1140;SDS011;559;48.628;8.924;2023-04-23T08:07:16;73.50;;;70.90;;
1140;SDS011;559;48.628;8.924;2023-04-23T08:09:43;72.73;;;70.23;;
1140;SDS011;559;48.628;8.924;2023-04-23T08:12:10;74.30;;;71.70;;
1140;SDS011;559;48.628;8.924;2023-04-23T08:14:37;75.47;;;72.97;;
1140;SDS011;559;48.628;8.924;2023-04-23T08:17:03;70.77;;;68.27;;
1140;SDS011;559;48.628;8.924;2023-04-23T08:19:31;69.00;;;66.70;;
1140;SDS011;559;48.628;8.924;2023-04-23T08:21:57;68.50;;;66.20;;
1140;SDS011;559;48.628;8.924;2023-04-23T08:24:24;71.90;;;69.30;;
1140;SDS011;559;48.628;8.924;2023-04-23T08:26:51;71.70;;;69.10;;
1140;SDS011;559;48.628;8.924;2023-04-23T08:29:17;66.27;;;64.07;;
1140;SDS011;559;48.628;8.924;2023-04-23T08:31:44;58.73;;;56.93;;
1140;SDS011;559;48.628;8.924;2023-04-23T08:34:10;58.47;;;56.67;;
1140;SDS011;559;48.628;8.924;2023-04-23T08:36:40;62.60;;;60.80;;
1140;SDS011;559;48.628;8.924;2023-04-23T08:39:06;64.10;;;62.20;;
1140;SDS011;559;48.628;8.924;2023-04-23T08:41:34;63.40;;;61.60;;
1140;SDS011;559;48.628;8.924;2023-04-23T08:44:05;62.00;;;60.30;;
1140;SDS011;559;48.628;8.924;2023-04-23T08:46:38;62.60;;;60.70;;
1140;SDS011;559;48.628;8.924;2023-04-23T08:49:07;62.40;;;60.60;;
1140;SDS011;559;48.628;8.924;2023-04-23T08:51:41;58.07;;;56.40;;
1140;SDS011;559;48.628;8.924;2023-04-23T08:54:08;52.23;;;50.83;;
1140;SDS011;559;48.628;8.924;2023-04-23T08:56:40;43.20;;;42.00;;
1140;SDS011;559;48.628;8.924;2023-04-23T08:59:07;31.87;;;30.97;;
1140;SDS011;559;48.628;8.924;2023-04-23T09:01:33;24.93;;;23.73;;
1140;SDS011;559;48.628;8.924;2023-04-23T09:04:00;20.10;;;19.50;;
1140;SDS011;559;48.628;8.924;2023-04-23T09:06:28;12.10;;;11.80;;
1140;SDS011;559;48.628;8.924;2023-04-23T09:08:57;13.23;;;12.73;;
1140;SDS011;559;48.628;8.924;2023-04-23T09:11:25;10.40;;;10.10;;
1140;SDS011;559;48.628;8.924;2023-04-23T09:13:52;9.53;;;9.23;;
1140;SDS011;559;48.628;8.924;2023-04-23T09:16:19;9.53;;;9.13;;
1140;SDS011;559;48.628;8.924;2023-04-23T09:18:45;9.80;;;9.50;;
1140;SDS011;559;48.628;8.924;2023-04-23T09:21:13;8.40;;;8.10;;
1140;SDS011;559;48.628;8.924;2023-04-23T09:23:40;8.13;;;7.93;;
1140;SDS011;559;48.628;8.924;2023-04-23T09:26:08;8.00;;;7.70;;
1140;SDS011;559;48.628;8.924;2023-04-23T09:28:35;8.30;;;8.00;;
1140;SDS011;559;48.628;8.924;2023-04-23T09:31:03;6.33;;;6.13;;
1140;SDS011;559;48.628;8.924;2023-04-23T09:33:33;7.20;;;7.00;;
1140;SDS011;559;48.628;8.924;2023-04-23T09:36:04;5.70;;;5.50;;
1140;SDS011;559;48.628;8.924;2023-04-23T09:38:34;7.03;;;6.73;;
1140;SDS011;559;48.628;8.924;2023-04-23T09:43:51;7.40;;;7.10;;
1140;SDS011;559;48.628;8.924;2023-04-23T09:46:18;9.43;;;9.13;;
1140;SDS011;559;48.628;8.924;2023-04-23T09:48:45;7.67;;;7.47;;
1140;SDS011;559;48.628;8.924;2023-04-23T09:51:13;6.20;;;6.00;;
1140;SDS011;559;48.628;8.924;2023-04-23T09:53:40;6.80;;;6.50;;
1140;SDS011;559;48.628;8.924;2023-04-23T09:56:07;6.10;;;5.90;;
1140;SDS011;559;48.628;8.924;2023-04-23T09:58:35;3.97;;;3.77;;
1140;SDS011;559;48.628;8.924;2023-04-23T10:01:06;3.53;;;3.37;;
1140;SDS011;559;48.628;8.924;2023-04-23T10:03:33;2.43;;;2.33;;
1140;SDS011;559;48.628;8.924;2023-04-23T10:05:59;2.63;;;2.43;;
1140;SDS011;559;48.628;8.924;2023-04-23T10:08:26;2.43;;;2.30;;
1140;SDS011;559;48.628;8.924;2023-04-23T10:10:53;2.80;;;2.23;;
1140;SDS011;559;48.628;8.924;2023-04-23T10:13:19;2.00;;;1.80;;
1140;SDS011;559;48.628;8.924;2023-04-23T10:15:47;1.30;;;1.20;;
1140;SDS011;559;48.628;8.924;2023-04-23T10:18:16;2.03;;;1.93;;
1140;SDS011;559;48.628;8.924;2023-04-23T10:20:44;1.63;;;1.53;;
1140;SDS011;559;48.628;8.924;2023-04-23T10:23:10;2.20;;;2.00;;
1140;SDS011;559;48.628;8.924;2023-04-23T10:25:38;1.30;;;1.20;;
1140;SDS011;559;48.628;8.924;2023-04-23T10:28:05;1.43;;;1.13;;
1140;SDS011;559;48.628;8.924;2023-04-23T10:30:35;1.47;;;1.37;;
1140;SDS011;559;48.628;8.924;2023-04-23T10:33:03;1.70;;;1.60;;
1140;SDS011;559;48.628;8.924;2023-04-23T10:35:30;1.90;;;1.60;;
1140;SDS011;559;48.628;8.924;2023-04-23T10:37:58;1.60;;;1.27;;
1140;SDS011;559;48.628;8.924;2023-04-23T10:40:28;3.10;;;1.60;;
1140;SDS011;559;48.628;8.924;2023-04-23T10:42:56;2.27;;;1.67;;
1140;SDS011;559;48.628;8.924;2023-04-23T10:45:22;1.50;;;1.17;;
1140;SDS011;559;48.628;8.924;2023-04-23T10:47:49;1.30;;;1.20;;
1140;SDS011;559;48.628;8.924;2023-04-23T10:50:23;1.20;;;1.10;;
1140;SDS011;559;48.628;8.924;2023-04-23T10:52:50;1.40;;;1.30;;
1140;SDS011;559;48.628;8.924;2023-04-23T10:55:18;1.37;;;1.10;;
1140;SDS011;559;48.628;8.924;2023-04-23T10:57:55;1.17;;;1.00;;
1140;SDS011;559;48.628;8.924;2023-04-23T11:00:24;1.10;;;0.80;;
1140;SDS011;559;48.628;8.924;2023-04-23T11:02:51;1.10;;;0.87;;
1140;SDS011;559;48.628;8.924;2023-04-23T11:05:19;1.07;;;0.87;;
1140;SDS011;559;48.628;8.924;2023-04-23T11:08:02;1.13;;;0.93;;
1140;SDS011;559;48.628;8.924;2023-04-23T11:10:30;3.43;;;1.10;;
1140;SDS011;559;48.628;8.924;2023-04-23T11:18:59;1.20;;;1.10;;
1140;SDS011;559;48.628;8.924;2023-04-23T11:21:55;1.20;;;0.80;;
1140;SDS011;559;48.628;8.924;2023-04-23T11:24:28;3.37;;;0.97;;
1140;SDS011;559;48.628;8.924;2023-04-23T11:27:06;1.00;;;0.70;;
1140;SDS011;559;48.628;8.924;2023-04-23T11:29:35;1.20;;;0.93;;
1140;SDS011;559;48.628;8.924;2023-04-23T11:32:03;1.00;;;0.90;;
1140;SDS011;559;48.628;8.924;2023-04-23T11:50:23;1.20;;;0.87;;
1140;SDS011;559;48.628;8.924;2023-04-23T11:56:52;1.10;;;0.70;;
1140;SDS011;559;48.628;8.924;2023-04-23T12:05:57;1.50;;;1.10;;
1140;SDS011;559;48.628;8.924;2023-04-23T12:06:27;1.20;;;0.90;;
1140;SDS011;559;48.628;8.924;2023-04-23T12:09:09;1.30;;;0.70;;
1140;SDS011;559;48.628;8.924;2023-04-23T12:11:56;1.40;;;0.80;;
1140;SDS011;559;48.628;8.924;2023-04-23T12:15:01;1.47;;;0.87;;
1140;SDS011;559;48.628;8.924;2023-04-23T12:17:46;1.10;;;0.70;;
1140;SDS011;559;48.628;8.924;2023-04-23T12:20:51;1.10;;;0.80;;
1140;SDS011;559;48.628;8.924;2023-04-23T12:23:29;3.57;;;1.43;;
1140;SDS011;559;48.628;8.924;2023-04-23T12:25:57;2.03;;;1.53;;
1140;SDS011;559;48.628;8.924;2023-04-23T12:28:32;1.57;;;1.00;;
1140;SDS011;559;48.628;8.924;2023-04-23T12:31:05;1.80;;;1.10;;
1140;SDS011;559;48.628;8.924;2023-04-23T12:36:50;1.30;;;0.97;;
1140;SDS011;559;48.628;8.924;2023-04-23T12:39:27;1.30;;;0.90;;
1140;SDS011;559;48.628;8.924;2023-04-23T12:45:11;1.70;;;0.83;;
1140;SDS011;559;48.628;8.924;2023-04-23T12:51:23;1.33;;;0.93;;
1140;SDS011;559;48.628;8.924;2023-04-23T12:53:50;1.10;;;0.77;;
1140;SDS011;559;48.628;8.924;2023-04-23T12:56:19;1.60;;;0.87;;
1140;SDS011;559;48.628;8.924;2023-04-23T13:05:52;4.00;;;1.10;;
1140;SDS011;559;48.628;8.924;2023-04-23T13:12:18;2.70;;;0.70;;
1140;SDS011;559;48.628;8.924;2023-04-23T13:17:48;1.47;;;0.70;;
1140;SDS011;559;48.628;8.924;2023-04-23T13:20:14;2.30;;;1.13;;
1140;SDS011;559;48.628;8.924;2023-04-23T13:22:40;1.40;;;0.80;;
1140;SDS011;559;48.628;8.924;2023-04-23T13:25:07;1.07;;;0.50;;
1140;SDS011;559;48.628;8.924;2023-04-23T13:27:35;1.53;;;0.80;;
1140;SDS011;559;48.628;8.924;2023-04-23T13:30:02;2.57;;;0.97;;
1140;SDS011;559;48.628;8.924;2023-04-23T13:32:32;1.00;;;0.60;;
1140;SDS011;559;48.628;8.924;2023-04-23T13:34:58;1.10;;;0.80;;
1140;SDS011;559;48.628;8.924;2023-04-23T13:37:28;1.00;;;0.63;;
1140;SDS011;559;48.628;8.924;2023-04-23T13:39:55;1.97;;;0.80;;
1140;SDS011;559;48.628;8.924;2023-04-23T13:42:21;1.33;;;1.23;;
1140;SDS011;559;48.628;8.924;2023-04-23T13:44:49;2.40;;;0.80;;
1140;SDS011;559;48.628;8.924;2023-04-23T13:47:16;0.90;;;0.50;;
1140;SDS011;559;48.628;8.924;2023-04-23T13:49:43;1.10;;;0.83;;
1140;SDS011;559;48.628;8.924;2023-04-23T13:52:09;2.60;;;0.83;;
1140;SDS011;559;48.628;8.924;2023-04-23T13:54:36;1.20;;;0.83;;
1140;SDS011;559;48.628;8.924;2023-04-23T13:57:03;1.40;;;0.73;;
1140;SDS011;559;48.628;8.924;2023-04-23T13:59:29;1.07;;;0.70;;
1140;SDS011;559;48.628;8.924;2023-04-23T14:01:57;1.10;;;0.77;;
1140;SDS011;559;48.628;8.924;2023-04-23T14:04:24;1.80;;;0.83;;
1140;SDS011;559;48.628;8.924;2023-04-23T14:06:50;1.10;;;0.70;;
1140;SDS011;559;48.628;8.924;2023-04-23T14:09:17;2.20;;;0.90;;
1140;SDS011;559;48.628;8.924;2023-04-23T14:11:46;2.43;;;0.90;;
1140;SDS011;559;48.628;8.924;2023-04-23T14:14:12;1.20;;;1.00;;
1140;SDS011;559;48.628;8.924;2023-04-23T14:16:39;1.80;;;0.90;;
1140;SDS011;559;48.628;8.924;2023-04-23T14:19:06;1.30;;;0.70;;
1140;SDS011;559;48.628;8.924;2023-04-23T14:21:33;2.93;;;1.00;;
1140;SDS011;559;48.628;8.924;2023-04-23T14:24:00;2.50;;;0.77;;
1140;SDS011;559;48.628;8.924;2023-04-23T14:26:31;1.97;;;0.90;;
1140;SDS011;559;48.628;8.924;2023-04-23T14:29:03;1.70;;;1.00;;
1140;SDS011;559;48.628;8.924;2023-04-23T14:31:35;1.83;;;0.97;;
1140;SDS011;559;48.628;8.924;2023-04-23T14:34:02;1.10;;;0.60;;
1140;SDS011;559;48.628;8.924;2023-04-23T14:36:30;2.80;;;0.80;;
1140;SDS011;559;48.628;8.924;2023-04-23T14:38:56;1.30;;;0.90;;
1140;SDS011;559;48.628;8.924;2023-04-23T14:41:28;2.07;;;0.90;;
1140;SDS011;559;48.628;8.924;2023-04-23T14:43:55;1.43;;;0.90;;
1140;SDS011;559;48.628;8.924;2023-04-23T14:46:25;2.13;;;1.30;;
1140;SDS011;559;48.628;8.924;2023-04-23T14:48:52;3.10;;;0.80;;
1140;SDS011;559;48.628;8.924;2023-04-23T14:51:22;1.97;;;1.27;;
1140;SDS011;559;48.628;8.924;2023-04-23T14:53:50;1.00;;;0.70;;
1140;SDS011;559;48.628;8.924;2023-04-23T14:56:25;1.30;;;0.97;;
1140;SDS011;559;48.628;8.924;2023-04-23T14:58:54;3.20;;;0.93;;
1140;SDS011;559;48.628;8.924;2023-04-23T15:07:24;2.13;;;1.07;;
1140;SDS011;559;48.628;8.924;2023-04-23T15:09:52;2.73;;;0.80;;
1140;SDS011;559;48.628;8.924;2023-04-23T15:12:40;1.00;;;0.80;;
1140;SDS011;559;48.628;8.924;2023-04-23T15:18:42;30.93;;;29.97;;
1140;SDS011;559;48.628;8.924;2023-04-23T15:21:11;105.27;;;102.00;;
1140;SDS011;559;48.628;8.924;2023-04-23T15:40:26;156.07;;;149.37;;
1140;SDS011;559;48.628;8.924;2023-04-23T15:42:57;153.60;;;147.07;;
1140;SDS011;559;48.628;8.924;2023-04-23T15:45:39;169.90;;;162.77;;
1140;SDS011;559;48.628;8.924;2023-04-23T15:51:43;163.60;;;157.00;;
1140;SDS011;559;48.628;8.924;2023-04-23T15:55:27;162.27;;;155.20;;
1140;SDS011;559;48.628;8.924;2023-04-23T15:57:50;162.03;;;154.77;;
1140;SDS011;559;48.628;8.924;2023-04-23T16:00:22;152.40;;;145.20;;
1140;SDS011;559;48.628;8.924;2023-04-23T16:14:52;160.20;;;153.20;;
1140;SDS011;559;48.628;8.924;2023-04-23T16:17:18;167.43;;;160.13;;
1140;SDS011;559;48.628;8.924;2023-04-23T16:19:45;150.00;;;143.40;;
1140;SDS011;559;48.628;8.924;2023-04-23T16:22:12;157.18;;;150.43;;
1140;SDS011;559;48.628;8.924;2023-04-23T16:24:40;163.83;;;156.10;;
1140;SDS011;559;48.628;8.924;2023-04-23T16:27:07;173.40;;;165.40;;
1140;SDS011;559;48.628;8.924;2023-04-23T16:29:34;169.50;;;161.00;;
1140;SDS011;559;48.628;8.924;2023-04-23T16:32:01;167.77;;;158.97;;
1140;SDS011;559;48.628;8.924;2023-04-23T16:34:27;167.30;;;158.13;;
1140;SDS011;559;48.628;8.924;2023-04-23T16:36:54;164.87;;;156.20;;
1140;SDS011;559;48.628;8.924;2023-04-23T16:39:21;177.03;;;168.43;;
1140;SDS011;559;48.628;8.924;2023-04-23T16:41:49;163.80;;;155.30;;
1140;SDS011;559;48.628;8.924;2023-04-23T16:44:15;162.27;;;153.77;;
1140;SDS011;559;48.628;8.924;2023-04-23T16:46:42;154.03;;;146.63;;